Time;durP1;ratioP1;P1;durP2;ratioP2;P2;SDS_P1;SDS_P2;PMS_P1;PMS_P2;Temp;Humidity;BMP_temperature;BMP_pressure;BME280_temperature;BME280_humidity;BME280_pressure;Samples;Min_cycle;Max_cycle;Signal;HPM_P1;HPM_P2
2024/01/14 00:01:22;;;;;;;84.60;28.10;;;;;;;;;;5019622;28;20025;-55
2024/01/14 00:03:48;;;;;;;78.25;27.40;;;;;;;;;;5013634;28;20030;-56
2024/01/14 00:06:14;;;;;;;65.85;25.38;;;;;;;;;;5015869;28;20108;-57
2024/01/14 00:08:40;;;;;;;70.68;24.95;;;;;;;;;;5018960;28;20037;-56
2024/01/14 00:11:07;;;;;;;62.35;24.63;;;;;;;;;;5014366;28;20083;-55
2024/01/14 00:13:33;;;;;;;65.50;24.45;;;;;;;;;;5014255;28;20034;-56
2024/01/14 00:15:59;;;;;;;69.32;25.10;;;;;;;;;;5015259;28;20377;-56
2024/01/14 00:18:25;;;;;;;64.97;24.23;;;;;;;;;;5013982;28;20018;-56
2024/01/14 00:20:51;;;;;;;61.83;24.00;;;;;;;;;;5017400;28;20018;-53
2024/01/14 00:23:17;;;;;;;71.65;24.52;;;;;;;;;;5015226;28;20063;-55
2024/01/14 00:25:43;;;;;;;61.75;24.42;;;;;;;;;;5011998;28;20026;-54
2024/01/14 00:28:09;;;;;;;67.53;24.23;;;;;;;;;;5012482;28;20557;-55
2024/01/14 00:30:35;;;;;;;74.45;25.13;;;;;;;;;;5016479;28;20396;-56
2024/01/14 00:33:01;;;;;;;61.75;22.48;;;;;;;;;;5011759;28;20408;-57
2024/01/14 00:35:27;;;;;;;59.63;22.65;;;;;;;;;;5015412;28;20041;-55
2024/01/14 00:37:54;;;;;;;60.65;23.10;;;;;;;;;;5009810;28;20045;-55
2024/01/14 00:40:20;;;;;;;60.10;23.65;;;;;;;;;;5011371;28;20641;-53
2024/01/14 00:42:46;;;;;;;59.95;23.75;;;;;;;;;;5011452;28;20033;-54
2024/01/14 00:45:12;;;;;;;62.03;23.05;;;;;;;;;;5010747;28;20036;-57
2024/01/14 00:47:38;;;;;;;62.42;25.00;;;;;;;;;;5016646;28;20443;-55
2024/01/14 00:50:04;;;;;;;58.97;23.42;;;;;;;;;;5010410;28;20543;-53
2024/01/14 00:52:30;;;;;;;57.25;21.67;;;;;;;;;;5012518;28;20025;-54
2024/01/14 00:54:56;;;;;;;68.00;25.08;;;;;;;;;;5014693;28;20094;-56
2024/01/14 00:57:22;;;;;;;65.68;23.02;;;;;;;;;;5011182;28;20044;-55
2024/01/14 00:59:48;;;;;;;57.55;22.52;;;;;;;;;;5012900;28;20052;-54
2024/01/14 01:02:14;;;;;;;69.90;23.67;;;;;;;;;;5015544;28;20033;-53
2024/01/14 01:04:40;;;;;;;62.83;24.48;;;;;;;;;;5011011;28;20022;-55
2024/01/14 01:07:06;;;;;;;55.47;22.80;;;;;;;;;;5016535;28;20029;-55
2024/01/14 01:09:32;;;;;;;68.45;23.40;;;;;;;;;;5014150;28;20064;-53
2024/01/14 01:11:57;;;;;;;62.15;23.52;;;;;;;;;;5012981;28;20144;-54
2024/01/14 01:14:23;;;;;;;59.63;21.90;;;;;;;;;;5013094;28;20489;-56
2024/01/14 01:16:49;;;;;;;67.10;23.33;;;;;;;;;;5011448;28;20542;-52
2024/01/14 01:19:15;;;;;;;65.00;24.33;;;;;;;;;;5014002;28;20057;-56
2024/01/14 01:21:41;;;;;;;64.50;25.50;;;;;;;;;;5013010;28;20033;-56
2024/01/14 01:24:11;;;;;;;62.40;24.65;;;;;;;;;;5014726;28;20858;-53
2024/01/14 01:26:37;;;;;;;71.70;25.25;;;;;;;;;;5014925;28;20022;-55
2024/01/14 01:29:03;;;;;;;68.10;23.75;;;;;;;;;;5013806;28;20093;-54
2024/01/14 01:31:29;;;;;;;70.00;25.67;;;;;;;;;;5015386;28;20112;-55
2024/01/14 01:33:55;;;;;;;63.85;22.80;;;;;;;;;;5013465;28;20034;-57
2024/01/14 01:36:21;;;;;;;67.30;25.10;;;;;;;;;;5024787;28;20060;-54
2024/01/14 01:38:47;;;;;;;66.55;25.65;;;;;;;;;;5019119;28;20022;-54
2024/01/14 01:41:13;;;;;;;70.45;23.20;;;;;;;;;;5019261;28;20022;-53
2024/01/14 01:43:39;;;;;;;65.25;23.92;;;;;;;;;;5015607;28;20014;-53
2024/01/14 01:46:07;;;;;;;60.13;23.52;;;;;;;;;;5013176;28;20117;-54
2024/01/14 01:48:33;;;;;;;70.20;24.83;;;;;;;;;;5014014;28;20108;-54
2024/01/14 01:50:59;;;;;;;59.90;22.13;;;;;;;;;;5011338;28;20157;-52
2024/01/14 01:53:25;;;;;;;65.90;22.92;;;;;;;;;;5010813;28;20045;-53
2024/01/14 01:55:52;;;;;;;68.80;25.27;;;;;;;;;;5011699;28;20098;-53
2024/01/14 01:58:19;;;;;;;66.45;25.67;;;;;;;;;;5021523;28;20022;-52
2024/01/14 02:00:45;;;;;;;63.13;23.23;;;;;;;;;;5014571;28;20026;-55
2024/01/14 02:03:12;;;;;;;64.65;22.80;;;;;;;;;;5013383;28;20048;-54
2024/01/14 02:05:40;;;;;;;53.60;20.45;;;;;;;;;;5013120;28;20029;-55
2024/01/14 02:08:07;;;;;;;58.65;21.10;;;;;;;;;;5013382;28;20029;-54
2024/01/14 02:10:33;;;;;;;55.67;21.58;;;;;;;;;;5011353;28;20028;-54
2024/01/14 02:12:59;;;;;;;63.97;23.25;;;;;;;;;;5013715;28;20116;-51
2024/01/14 02:15:25;;;;;;;56.63;22.25;;;;;;;;;;5013569;28;20044;-54
2024/01/14 02:17:51;;;;;;;52.45;20.85;;;;;;;;;;5013839;28;20538;-53
2024/01/14 02:20:17;;;;;;;60.45;22.73;;;;;;;;;;5014731;28;20057;-53
2024/01/14 02:22:44;;;;;;;55.05;20.00;;;;;;;;;;5015509;28;20026;-53
2024/01/14 02:25:10;;;;;;;60.72;19.98;;;;;;;;;;5017890;28;20025;-53
2024/01/14 02:27:36;;;;;;;59.92;20.77;;;;;;;;;;5017579;28;20476;-53
2024/01/14 02:30:02;;;;;;;45.47;18.58;;;;;;;;;;5016319;28;20125;-56
2024/01/14 02:32:28;;;;;;;49.67;18.85;;;;;;;;;;5047580;28;20034;-57
2024/01/14 02:34:54;;;;;;;58.63;19.65;;;;;;;;;;5037395;28;20176;-56
2024/01/14 02:37:20;;;;;;;56.92;20.40;;;;;;;;;;5027618;28;20033;-56
2024/01/14 02:39:46;;;;;;;55.75;21.80;;;;;;;;;;5016263;28;20057;-54
2024/01/14 02:42:12;;;;;;;52.78;19.92;;;;;;;;;;5020577;28;20029;-56
2024/01/14 02:44:38;;;;;;;47.00;18.38;;;;;;;;;;5012331;28;20542;-55
2024/01/14 02:47:04;;;;;;;58.67;20.65;;;;;;;;;;5018436;28;20059;-54
2024/01/14 02:49:30;;;;;;;44.60;18.70;;;;;;;;;;5020631;28;20026;-56
2024/01/14 02:51:56;;;;;;;52.28;18.73;;;;;;;;;;5019093;28;20109;-57
2024/01/14 02:54:22;;;;;;;46.50;18.25;;;;;;;;;;5019040;28;20052;-54
2024/01/14 02:56:48;;;;;;;43.03;17.52;;;;;;;;;;5012494;28;20018;-55
2024/01/14 02:59:14;;;;;;;50.05;18.27;;;;;;;;;;5017725;28;20030;-56
2024/01/14 03:01:46;;;;;;;47.15;19.17;;;;;;;;;;5015918;28;20095;-53
2024/01/14 03:04:12;;;;;;;47.45;18.38;;;;;;;;;;5014913;28;20033;-55
2024/01/14 03:06:38;;;;;;;48.63;18.15;;;;;;;;;;5018814;28;20144;-53
2024/01/14 03:09:06;;;;;;;41.15;16.30;;;;;;;;;;5018096;28;20113;-52
2024/01/14 03:11:32;;;;;;;46.08;16.40;;;;;;;;;;5017357;28;20038;-56
2024/01/14 03:13:59;;;;;;;40.63;15.52;;;;;;;;;;5013308;28;20026;-54
2024/01/14 03:16:25;;;;;;;40.75;16.77;;;;;;;;;;5016856;28;20491;-54
2024/01/14 03:18:51;;;;;;;43.58;16.02;;;;;;;;;;5017217;28;20052;-54
2024/01/14 03:21:20;;;;;;;44.95;15.55;;;;;;;;;;5019118;28;20030;-53
2024/01/14 03:23:46;;;;;;;40.85;16.15;;;;;;;;;;5014229;28;20403;-56
2024/01/14 03:26:12;;;;;;;41.78;16.17;;;;;;;;;;5017000;28;20122;-55
2024/01/14 03:28:39;;;;;;;34.50;13.10;;;;;;;;;;5016374;28;20511;-55
2024/01/14 03:31:07;;;;;;;35.78;14.98;;;;;;;;;;5017050;28;20120;-53
2024/01/14 03:33:33;;;;;;;36.80;16.25;;;;;;;;;;5021613;28;20051;-55
2024/01/14 03:36:00;;;;;;;33.85;13.60;;;;;;;;;;5015776;28;20092;-54
2024/01/14 03:38:26;;;;;;;39.88;17.23;;;;;;;;;;5011687;28;20025;-56
2024/01/14 03:40:52;;;;;;;40.90;15.90;;;;;;;;;;5018457;28;20032;-57
2024/01/14 03:43:18;;;;;;;35.53;14.88;;;;;;;;;;5015900;28;20102;-54
2024/01/14 03:45:44;;;;;;;40.35;14.90;;;;;;;;;;5017187;28;20026;-55
2024/01/14 03:48:10;;;;;;;33.97;13.30;;;;;;;;;;5019916;28;20037;-53
2024/01/14 03:50:36;;;;;;;33.42;13.68;;;;;;;;;;5014109;28;20018;-54
2024/01/14 03:53:02;;;;;;;39.65;14.93;;;;;;;;;;5019819;28;20033;-55
2024/01/14 03:55:28;;;;;;;34.53;13.43;;;;;;;;;;5016560;28;20484;-53
2024/01/14 03:57:54;;;;;;;38.65;13.00;;;;;;;;;;5012271;28;20120;-57
2024/01/14 04:00:20;;;;;;;39.50;13.82;;;;;;;;;;5016257;28;20097;-54
2024/01/14 04:02:46;;;;;;;33.15;12.30;;;;;;;;;;5019459;28;20068;-56
2024/01/14 04:05:13;;;;;;;40.08;15.02;;;;;;;;;;5017754;28;20045;-54
2024/01/14 04:07:38;;;;;;;32.15;12.55;;;;;;;;;;5019291;28;20453;-54
2024/01/14 04:10:05;;;;;;;39.97;14.27;;;;;;;;;;5015684;28;20040;-54
2024/01/14 04:12:31;;;;;;;40.05;13.52;;;;;;;;;;5015292;28;20079;-54
2024/01/14 04:14:56;;;;;;;42.50;16.35;;;;;;;;;;5014262;28;20053;-54
2024/01/14 04:17:22;;;;;;;30.55;12.70;;;;;;;;;;5019410;28;20080;-53
2024/01/14 04:19:48;;;;;;;33.42;13.10;;;;;;;;;;5014708;28;20018;-55
2024/01/14 04:22:14;;;;;;;37.05;14.10;;;;;;;;;;5019408;28;20061;-53
2024/01/14 04:24:41;;;;;;;36.00;12.80;;;;;;;;;;5013714;28;20404;-58
2024/01/14 04:27:07;;;;;;;36.60;12.65;;;;;;;;;;5014804;28;20112;-56
2024/01/14 04:29:33;;;;;;;35.25;13.32;;;;;;;;;;5014195;28;20441;-54
2024/01/14 04:32:00;;;;;;;33.15;14.13;;;;;;;;;;5015692;28;20112;-56
2024/01/14 04:34:26;;;;;;;33.75;12.13;;;;;;;;;;5016331;28;20029;-57
2024/01/14 04:36:52;;;;;;;30.75;12.43;;;;;;;;;;5018635;28;20029;-57
2024/01/14 04:39:18;;;;;;;35.22;14.10;;;;;;;;;;5011056;28;20022;-56
2024/01/14 04:41:44;;;;;;;34.75;13.52;;;;;;;;;;5014965;28;20619;-53
2024/01/14 04:44:09;;;;;;;35.20;13.82;;;;;;;;;;5017722;28;20550;-56
2024/01/14 04:46:35;;;;;;;35.30;12.38;;;;;;;;;;5017005;28;20113;-56
2024/01/14 04:49:01;;;;;;;33.00;13.48;;;;;;;;;;5013085;28;20041;-56
2024/01/14 04:51:28;;;;;;;32.85;12.52;;;;;;;;;;5014651;28;20034;-54
2024/01/14 04:53:54;;;;;;;32.40;12.70;;;;;;;;;;5010469;28;20084;-56
2024/01/14 04:56:20;;;;;;;33.25;13.10;;;;;;;;;;5017890;28;20025;-56
2024/01/14 04:58:46;;;;;;;32.67;13.70;;;;;;;;;;5010653;28;20432;-52
2024/01/14 05:01:12;;;;;;;34.08;13.65;;;;;;;;;;5012027;28;20030;-56
2024/01/14 05:03:38;;;;;;;32.97;12.75;;;;;;;;;;5020665;28;20043;-53
2024/01/14 05:06:04;;;;;;;34.20;12.52;;;;;;;;;;5024787;28;20035;-55
2024/01/14 05:08:31;;;;;;;32.60;11.93;;;;;;;;;;5014406;28;20033;-55
2024/01/14 05:10:56;;;;;;;33.60;13.15;;;;;;;;;;5008121;28;20026;-54
2024/01/14 05:13:22;;;;;;;28.30;11.35;;;;;;;;;;5018174;28;20419;-54
2024/01/14 05:15:49;;;;;;;37.50;15.63;;;;;;;;;;5016516;28;20029;-52
2024/01/14 05:18:15;;;;;;;32.83;13.32;;;;;;;;;;5018276;28;20029;-53
2024/01/14 05:20:41;;;;;;;29.67;12.32;;;;;;;;;;5014956;28;20488;-53
2024/01/14 05:23:08;;;;;;;32.65;12.95;;;;;;;;;;5016289;28;20034;-53
2024/01/14 05:25:34;;;;;;;38.10;13.88;;;;;;;;;;5018748;28;20029;-54
2024/01/14 05:28:00;;;;;;;31.33;11.68;;;;;;;;;;5018583;28;20030;-55
2024/01/14 05:30:26;;;;;;;28.10;12.52;;;;;;;;;;5013482;28;20033;-54
2024/01/14 05:32:52;;;;;;;28.60;11.82;;;;;;;;;;5037593;28;20046;-58
2024/01/14 05:35:18;;;;;;;35.92;12.30;;;;;;;;;;5034786;28;20068;-54
2024/01/14 05:37:44;;;;;;;31.88;11.75;;;;;;;;;;5024088;28;20436;-55
2024/01/14 05:40:10;;;;;;;34.15;11.95;;;;;;;;;;5019534;28;20026;-53
2024/01/14 05:42:40;;;;;;;36.05;12.18;;;;;;;;;;5016620;28;20026;-55
2024/01/14 05:45:06;;;;;;;28.58;11.63;;;;;;;;;;5022071;28;20049;-53
2024/01/14 05:47:32;;;;;;;31.30;12.40;;;;;;;;;;5017166;28;20036;-56
2024/01/14 05:49:59;;;;;;;31.85;12.07;;;;;;;;;;5014475;28;20034;-57
2024/01/14 05:52:25;;;;;;;29.33;11.10;;;;;;;;;;5012502;28;20028;-56
2024/01/14 05:54:51;;;;;;;32.67;12.98;;;;;;;;;;5017600;28;20038;-53
2024/01/14 05:57:17;;;;;;;35.90;12.63;;;;;;;;;;5023047;28;20029;-56
2024/01/14 05:59:43;;;;;;;38.50;11.10;;;;;;;;;;5014102;28;20311;-53
2024/01/14 06:02:09;;;;;;;29.10;10.90;;;;;;;;;;5012865;28;20483;-53
2024/01/14 06:04:35;;;;;;;32.88;11.75;;;;;;;;;;5014817;28;20546;-53
2024/01/14 06:07:01;;;;;;;28.27;11.57;;;;;;;;;;5010542;28;20041;-53
2024/01/14 06:09:27;;;;;;;27.98;11.75;;;;;;;;;;5014742;28;20140;-56
2024/01/14 06:11:53;;;;;;;24.63;10.85;;;;;;;;;;5012205;28;20587;-55
2024/01/14 06:14:19;;;;;;;29.70;12.35;;;;;;;;;;5015855;28;20021;-54
2024/01/14 06:16:45;;;;;;;28.92;11.27;;;;;;;;;;5014501;28;20053;-55
2024/01/14 06:19:11;;;;;;;26.40;10.82;;;;;;;;;;5012593;28;20109;-56
2024/01/14 06:21:41;;;;;;;29.35;11.80;;;;;;;;;;5010083;28;20453;-52
2024/01/14 06:24:07;;;;;;;28.48;11.30;;;;;;;;;;5011281;28;20084;-52
2024/01/14 06:26:33;;;;;;;31.88;11.52;;;;;;;;;;5010529;28;20380;-55
2024/01/14 06:28:59;;;;;;;31.70;11.93;;;;;;;;;;5011140;28;20460;-53
2024/01/14 06:31:24;;;;;;;26.85;10.90;;;;;;;;;;5011351;28;20396;-53
2024/01/14 06:33:51;;;;;;;30.02;11.57;;;;;;;;;;5010611;28;20029;-53
2024/01/14 06:36:19;;;;;;;30.20;11.40;;;;;;;;;;5008613;28;20030;-53
2024/01/14 06:38:45;;;;;;;31.95;13.98;;;;;;;;;;5012605;28;20124;-54
2024/01/14 06:41:23;;;;;;;26.58;12.55;;;;;;;;;;5008081;28;20178;-53
2024/01/14 06:43:49;;;;;;;26.55;11.45;;;;;;;;;;5011245;28;20455;-51
2024/01/14 06:46:16;;;;;;;30.60;13.70;;;;;;;;;;5010844;28;20030;-53
2024/01/14 06:48:42;;;;;;;30.30;11.48;;;;;;;;;;5009685;28;20034;-53
2024/01/14 06:51:08;;;;;;;26.83;11.23;;;;;;;;;;5009052;28;20057;-51
2024/01/14 06:53:34;;;;;;;31.30;12.50;;;;;;;;;;5009962;28;20026;-53
2024/01/14 06:56:01;;;;;;;29.58;11.30;;;;;;;;;;5011093;28;20034;-53
2024/01/14 06:58:27;;;;;;;25.02;12.18;;;;;;;;;;5010343;28;20104;-53
2024/01/14 07:00:52;;;;;;;33.40;12.90;;;;;;;;;;5017383;28;20171;-53
2024/01/14 07:03:19;;;;;;;30.58;12.68;;;;;;;;;;5015601;28;20415;-54
2024/01/14 07:05:44;;;;;;;28.45;12.18;;;;;;;;;;5020177;28;20036;-53
2024/01/14 07:08:10;;;;;;;28.20;11.25;;;;;;;;;;5024848;28;20025;-53
2024/01/14 07:10:36;;;;;;;32.65;12.15;;;;;;;;;;5019422;28;20030;-53
2024/01/14 07:13:03;;;;;;;34.13;12.52;;;;;;;;;;5024719;28;20049;-53
2024/01/14 07:15:29;;;;;;;31.05;12.05;;;;;;;;;;5021964;28;20026;-53
2024/01/14 07:17:55;;;;;;;24.98;10.73;;;;;;;;;;5022698;28;20040;-54
2024/01/14 07:20:21;;;;;;;27.58;10.35;;;;;;;;;;5017760;28;20447;-57
2024/01/14 07:22:47;;;;;;;29.38;10.68;;;;;;;;;;5025487;28;20022;-55
2024/01/14 07:25:13;;;;;;;25.50;10.23;;;;;;;;;;5019340;28;20022;-56
2024/01/14 07:27:39;;;;;;;27.00;10.45;;;;;;;;;;5022607;28;20109;-53
2024/01/14 07:30:05;;;;;;;28.23;11.05;;;;;;;;;;5018173;28;20087;-53
2024/01/14 07:32:31;;;;;;;31.70;12.70;;;;;;;;;;5017941;28;20061;-56
2024/01/14 07:34:57;;;;;;;27.73;12.10;;;;;;;;;;5014951;28;20037;-55
2024/01/14 07:37:23;;;;;;;27.52;11.13;;;;;;;;;;5010938;28;20070;-56
2024/01/14 07:39:49;;;;;;;30.73;12.18;;;;;;;;;;5012687;28;20094;-56
2024/01/14 07:42:16;;;;;;;30.90;11.25;;;;;;;;;;5027234;28;20037;-53
2024/01/14 07:44:42;;;;;;;27.48;11.25;;;;;;;;;;5015819;28;20029;-54
2024/01/14 07:47:08;;;;;;;32.15;11.35;;;;;;;;;;5010934;28;20038;-56
2024/01/14 07:49:34;;;;;;;26.52;11.57;;;;;;;;;;5019764;28;20420;-53
2024/01/14 07:52:00;;;;;;;25.48;12.18;;;;;;;;;;5009629;28;20034;-52
2024/01/14 07:54:26;;;;;;;30.10;11.75;;;;;;;;;;5010957;28;20080;-52
2024/01/14 07:56:52;;;;;;;24.23;10.32;;;;;;;;;;5014884;28;20080;-52
2024/01/14 07:59:20;;;;;;;29.60;11.35;;;;;;;;;;5011973;28;20490;-53
2024/01/14 08:01:46;;;;;;;29.67;10.98;;;;;;;;;;5009093;28;20420;-55
2024/01/14 08:04:12;;;;;;;27.00;10.30;;;;;;;;;;5013426;28;20033;-54
2024/01/14 08:06:38;;;;;;;24.48;10.45;;;;;;;;;;5009820;28;20124;-55
2024/01/14 08:09:06;;;;;;;28.25;10.07;;;;;;;;;;5018731;28;20036;-53
2024/01/14 08:11:32;;;;;;;26.60;9.70;;;;;;;;;;5014423;28;20037;-53
2024/01/14 08:13:58;;;;;;;28.25;9.98;;;;;;;;;;5013326;28;20083;-55
2024/01/14 08:16:24;;;;;;;27.02;9.82;;;;;;;;;;5008683;28;20030;-51
2024/01/14 08:18:51;;;;;;;22.75;8.45;;;;;;;;;;5014192;28;20083;-54
2024/01/14 08:21:17;;;;;;;22.25;10.00;;;;;;;;;;5017438;28;20049;-54
2024/01/14 08:23:43;;;;;;;21.73;9.13;;;;;;;;;;5008334;28;20029;-52
2024/01/14 08:26:09;;;;;;;18.67;8.98;;;;;;;;;;5012030;28;20056;-51
2024/01/14 08:28:36;;;;;;;24.77;9.02;;;;;;;;;;5013920;28;20484;-52
2024/01/14 08:31:02;;;;;;;22.55;9.88;;;;;;;;;;5014758;28;20497;-53
2024/01/14 08:33:28;;;;;;;21.10;8.52;;;;;;;;;;5025703;28;20096;-55
2024/01/14 08:35:55;;;;;;;18.95;8.15;;;;;;;;;;5015192;28;20025;-55
2024/01/14 08:38:21;;;;;;;18.10;7.30;;;;;;;;;;5010081;28;20025;-53
2024/01/14 08:40:47;;;;;;;23.38;8.52;;;;;;;;;;5004934;28;20135;-54
2024/01/14 08:43:13;;;;;;;18.75;8.00;;;;;;;;;;5017877;28;20469;-55
2024/01/14 08:45:39;;;;;;;17.92;7.82;;;;;;;;;;5020894;28;20025;-55
2024/01/14 08:48:06;;;;;;;18.80;8.20;;;;;;;;;;5017084;28;20558;-56
2024/01/14 08:50:32;;;;;;;19.65;8.00;;;;;;;;;;5013163;28;20547;-53
2024/01/14 08:52:58;;;;;;;22.27;8.93;;;;;;;;;;5024028;28;20425;-55
2024/01/14 08:55:24;;;;;;;18.08;6.95;;;;;;;;;;5016233;28;20033;-52
2024/01/14 08:57:50;;;;;;;18.25;8.02;;;;;;;;;;5013496;28;20017;-52
2024/01/14 09:00:16;;;;;;;19.52;7.70;;;;;;;;;;5014030;28;20512;-55
2024/01/14 09:02:42;;;;;;;20.90;7.95;;;;;;;;;;5019888;28;20121;-55
2024/01/14 09:05:08;;;;;;;18.88;6.97;;;;;;;;;;5020941;28;20105;-55
2024/01/14 09:07:34;;;;;;;19.65;7.60;;;;;;;;;;5013948;28;20065;-56
2024/01/14 09:10:00;;;;;;;18.55;7.00;;;;;;;;;;5010965;28;20037;-57
2024/01/14 09:12:26;;;;;;;18.60;7.68;;;;;;;;;;5014843;28;20082;-56
2024/01/14 09:14:52;;;;;;;15.07;7.60;;;;;;;;;;5015336;28;20099;-54
2024/01/14 09:17:18;;;;;;;20.40;7.82;;;;;;;;;;5016916;28;20053;-54
2024/01/14 09:19:44;;;;;;;19.83;7.55;;;;;;;;;;5014494;28;20496;-57
2024/01/14 09:22:10;;;;;;;20.17;7.93;;;;;;;;;;5018209;28;20514;-56
2024/01/14 09:24:37;;;;;;;18.98;7.55;;;;;;;;;;5014240;28;20026;-53
2024/01/14 09:27:03;;;;;;;17.55;6.78;;;;;;;;;;5010498;28;20026;-56
2024/01/14 09:29:29;;;;;;;17.95;7.57;;;;;;;;;;5013436;28;20025;-54
2024/01/14 09:31:56;;;;;;;18.63;6.85;;;;;;;;;;5012783;28;20037;-56
2024/01/14 09:34:22;;;;;;;18.17;7.47;;;;;;;;;;5020493;28;20025;-54
2024/01/14 09:36:48;;;;;;;16.92;7.00;;;;;;;;;;5015470;28;20026;-55
2024/01/14 09:39:14;;;;;;;16.15;6.57;;;;;;;;;;5022904;28;20085;-55
2024/01/14 09:41:43;;;;;;;20.30;7.78;;;;;;;;;;5016690;28;20388;-54
2024/01/14 09:44:10;;;;;;;18.77;7.57;;;;;;;;;;5022273;28;20039;-53
2024/01/14 09:46:36;;;;;;;18.27;7.13;;;;;;;;;;5018463;28;20030;-53
2024/01/14 09:49:02;;;;;;;21.10;7.75;;;;;;;;;;5024045;28;20040;-56
2024/01/14 09:51:32;;;;;;;16.58;6.93;;;;;;;;;;5016265;28;20388;-55
2024/01/14 09:54:01;;;;;;;17.92;8.02;;;;;;;;;;5020000;28;20041;-53
2024/01/14 09:56:29;;;;;;;14.30;6.53;;;;;;;;;;5013161;28;20018;-52
2024/01/14 09:58:55;;;;;;;17.40;7.25;;;;;;;;;;5019584;28;20031;-53
2024/01/14 10:01:22;;;;;;;17.92;6.93;;;;;;;;;;5018423;28;20510;-55
2024/01/14 10:03:49;;;;;;;20.75;7.72;;;;;;;;;;5014667;28;20030;-56
2024/01/14 10:06:15;;;;;;;19.88;7.30;;;;;;;;;;5009824;28;22158;-55
2024/01/14 10:08:42;;;;;;;21.83;8.50;;;;;;;;;;5006861;28;20068;-56
2024/01/14 10:11:08;;;;;;;16.85;7.85;;;;;;;;;;5012971;28;20033;-55
2024/01/14 10:13:35;;;;;;;21.17;9.00;;;;;;;;;;5012636;28;20029;-53
2024/01/14 10:16:02;;;;;;;19.45;8.50;;;;;;;;;;5013073;28;20025;-54
2024/01/14 10:18:28;;;;;;;20.20;8.75;;;;;;;;;;5006694;28;20022;-56
2024/01/14 10:20:55;;;;;;;23.02;9.40;;;;;;;;;;5011250;28;20025;-53
2024/01/14 10:23:24;;;;;;;21.58;8.70;;;;;;;;;;5022266;28;20132;-55
2024/01/14 10:25:50;;;;;;;24.02;8.23;;;;;;;;;;5016888;28;20109;-54
2024/01/14 10:28:17;;;;;;;22.73;8.60;;;;;;;;;;5012282;28;20515;-53
2024/01/14 10:30:43;;;;;;;19.70;7.78;;;;;;;;;;5007915;28;20026;-53
2024/01/14 10:33:10;;;;;;;27.58;9.55;;;;;;;;;;5009298;28;20438;-52
2024/01/14 10:35:36;;;;;;;20.73;8.60;;;;;;;;;;5012642;28;20057;-56
2024/01/14 10:38:02;;;;;;;24.70;9.15;;;;;;;;;;5016905;28;20143;-54
2024/01/14 10:40:28;;;;;;;18.63;8.25;;;;;;;;;;5007723;28;20029;-53
2024/01/14 10:42:54;;;;;;;20.13;8.88;;;;;;;;;;5007423;28;20034;-53
2024/01/14 10:45:20;;;;;;;18.00;8.43;;;;;;;;;;5021544;28;20498;-52
2024/01/14 10:47:53;;;;;;;22.35;8.38;;;;;;;;;;5018434;28;20492;-55
2024/01/14 10:50:21;;;;;;;22.25;8.95;;;;;;;;;;5019782;28;20037;-56
2024/01/14 10:52:50;;;;;;;27.95;9.32;;;;;;;;;;5017362;28;20117;-55
2024/01/14 10:55:34;;;;;;;20.90;9.38;;;;;;;;;;5017784;28;20052;-54
2024/01/14 10:58:03;;;;;;;23.60;9.02;;;;;;;;;;5018387;28;21816;-56
2024/01/14 11:00:32;;;;;;;22.83;9.48;;;;;;;;;;5018567;28;20104;-53
2024/01/14 11:02:59;;;;;;;19.15;7.60;;;;;;;;;;5011256;28;20029;-55
2024/01/14 11:05:26;;;;;;;23.63;9.45;;;;;;;;;;5016939;28;20029;-54
2024/01/14 11:07:53;;;;;;;32.45;9.93;;;;;;;;;;5012693;28;20076;-54
2024/01/14 11:10:20;;;;;;;20.80;8.50;;;;;;;;;;5018570;28;20108;-52
2024/01/14 11:12:59;;;;;;;19.73;8.13;;;;;;;;;;5011030;28;20028;-54
2024/01/14 11:16:03;;;;;;;21.40;8.00;;;;;;;;;;5013827;28;20093;-54
2024/01/14 11:18:35;;;;;;;25.27;8.43;;;;;;;;;;5023494;28;20446;-55
2024/01/14 11:21:16;;;;;;;22.02;8.98;;;;;;;;;;5024452;28;20048;-53
2024/01/14 11:23:42;;;;;;;22.55;8.63;;;;;;;;;;5020762;28;20069;-55
2024/01/14 11:26:08;;;;;;;22.58;8.90;;;;;;;;;;5013542;28;20522;-52
2024/01/14 11:28:35;;;;;;;19.52;8.50;;;;;;;;;;5019019;28;20045;-53
2024/01/14 11:31:02;;;;;;;23.73;8.45;;;;;;;;;;5017755;28;20052;-53
2024/01/14 11:33:29;;;;;;;18.77;7.40;;;;;;;;;;5020699;28;20056;-52
2024/01/14 11:35:55;;;;;;;21.00;8.05;;;;;;;;;;5014997;28;20045;-54
2024/01/14 11:38:34;;;;;;;17.75;6.85;;;;;;;;;;5017815;28;20028;-55
2024/01/14 11:41:20;;;;;;;19.50;7.38;;;;;;;;;;5016689;28;20050;-53
2024/01/14 11:43:46;;;;;;;17.63;7.32;;;;;;;;;;5013377;28;20095;-53
2024/01/14 11:46:31;;;;;;;15.52;6.65;;;;;;;;;;5017808;28;20488;-53
2024/01/14 11:48:57;;;;;;;13.85;6.57;;;;;;;;;;5020089;28;20030;-55
2024/01/14 11:51:23;;;;;;;17.02;7.65;;;;;;;;;;5017002;28;20336;-55
2024/01/14 11:53:49;;;;;;;15.95;7.30;;;;;;;;;;5019310;28;20117;-53
2024/01/14 11:56:28;;;;;;;17.20;7.85;;;;;;;;;;5016690;28;20057;-53
2024/01/14 11:58:54;;;;;;;17.98;7.05;;;;;;;;;;5018454;28;20093;-54
2024/01/14 12:01:20;;;;;;;18.45;7.03;;;;;;;;;;5018985;28;20105;-52
2024/01/14 12:03:59;;;;;;;14.85;6.60;;;;;;;;;;5015128;28;20373;-54
2024/01/14 12:06:26;;;;;;;17.23;7.85;;;;;;;;;;5016602;28;20018;-55
2024/01/14 12:09:00;;;;;;;13.45;7.25;;;;;;;;;;5008606;28;20022;-53
2024/01/14 12:11:26;;;;;;;17.05;7.20;;;;;;;;;;5016569;28;20148;-50
2024/01/14 12:13:52;;;;;;;14.50;7.22;;;;;;;;;;5011374;28;20125;-53
2024/01/14 12:16:18;;;;;;;18.35;7.70;;;;;;;;;;5013318;28;20025;-53
2024/01/14 12:18:45;;;;;;;17.10;7.07;;;;;;;;;;5015456;28;20376;-51
2024/01/14 12:21:11;;;;;;;15.40;7.45;;;;;;;;;;5012308;28;20034;-54
2024/01/14 12:23:37;;;;;;;15.75;7.63;;;;;;;;;;5018948;28;20033;-53
2024/01/14 12:26:06;;;;;;;14.35;7.18;;;;;;;;;;5018274;28;20041;-53
2024/01/14 12:28:32;;;;;;;11.07;6.68;;;;;;;;;;5017272;28;20101;-54
2024/01/14 12:30:59;;;;;;;16.13;7.68;;;;;;;;;;5008204;28;20388;-54
2024/01/14 12:33:25;;;;;;;14.52;6.53;;;;;;;;;;5011139;28;20026;-53
2024/01/14 12:35:51;;;;;;;13.60;6.65;;;;;;;;;;5013047;28;20025;-54
2024/01/14 12:38:18;;;;;;;15.07;6.05;;;;;;;;;;5008848;28;20033;-53
2024/01/14 12:40:44;;;;;;;11.25;5.78;;;;;;;;;;5008362;28;20496;-55
2024/01/14 12:43:12;;;;;;;11.77;5.68;;;;;;;;;;5007355;28;20066;-55
2024/01/14 12:45:45;;;;;;;10.07;4.88;;;;;;;;;;5009498;28;20038;-54
2024/01/14 12:48:11;;;;;;;10.52;4.00;;;;;;;;;;5011091;28;20030;-54
2024/01/14 12:50:37;;;;;;;11.75;4.47;;;;;;;;;;5009666;28;20049;-55
2024/01/14 12:53:05;;;;;;;12.07;5.30;;;;;;;;;;5006882;28;20077;-53
2024/01/14 12:55:32;;;;;;;8.50;4.50;;;;;;;;;;5009133;28;20438;-54
2024/01/14 12:58:00;;;;;;;8.23;3.85;;;;;;;;;;5007242;28;20037;-53
2024/01/14 13:00:26;;;;;;;10.68;5.10;;;;;;;;;;5002300;28;20383;-53
2024/01/14 13:02:52;;;;;;;9.75;4.68;;;;;;;;;;5003565;28;20025;-54
2024/01/14 13:05:18;;;;;;;9.32;3.90;;;;;;;;;;5014545;28;20055;-55
2024/01/14 13:07:44;;;;;;;11.43;4.97;;;;;;;;;;5007720;28;20548;-53
2024/01/14 13:10:10;;;;;;;10.15;4.00;;;;;;;;;;5007048;28;20121;-55
2024/01/14 13:12:36;;;;;;;8.70;3.85;;;;;;;;;;4995529;28;20045;-55
2024/01/14 13:15:02;;;;;;;7.35;3.72;;;;;;;;;;5008655;28;20076;-53
2024/01/14 13:17:28;;;;;;;9.07;3.92;;;;;;;;;;5002664;28;20043;-53
2024/01/14 13:19:53;;;;;;;10.40;4.30;;;;;;;;;;5010125;28;20025;-56
2024/01/14 13:22:20;;;;;;;7.40;3.40;;;;;;;;;;5012814;28;20566;-56
2024/01/14 13:24:46;;;;;;;12.85;4.30;;;;;;;;;;5007684;28;20038;-52
2024/01/14 13:27:12;;;;;;;9.77;4.60;;;;;;;;;;5014803;28;20087;-53
2024/01/14 13:29:39;;;;;;;10.32;4.18;;;;;;;;;;5011459;28;20132;-57
2024/01/14 13:32:05;;;;;;;8.48;4.57;;;;;;;;;;5026461;28;20037;-56
2024/01/14 13:34:31;;;;;;;11.98;4.38;;;;;;;;;;5012768;28;20496;-56
2024/01/14 13:36:58;;;;;;;8.02;4.43;;;;;;;;;;5008900;28;20050;-54
2024/01/14 13:39:24;;;;;;;10.77;4.63;;;;;;;;;;5015010;28;20105;-53
2024/01/14 13:41:50;;;;;;;10.57;4.43;;;;;;;;;;5009250;28;20087;-54
2024/01/14 13:44:16;;;;;;;12.68;4.80;;;;;;;;;;5012144;28;20481;-53
2024/01/14 13:46:42;;;;;;;10.32;4.90;;;;;;;;;;5008694;28;20034;-54
2024/01/14 13:49:08;;;;;;;9.25;4.45;;;;;;;;;;5014333;28;20049;-54
2024/01/14 13:51:34;;;;;;;10.43;5.40;;;;;;;;;;5007761;28;20026;-55
2024/01/14 13:54:00;;;;;;;12.43;5.30;;;;;;;;;;5001830;28;20041;-52
2024/01/14 13:56:26;;;;;;;10.05;4.82;;;;;;;;;;5008630;28;20361;-54
2024/01/14 13:58:52;;;;;;;11.73;5.60;;;;;;;;;;5014172;28;20464;-56
2024/01/14 14:01:18;;;;;;;10.88;5.47;;;;;;;;;;5010282;28;20041;-55
2024/01/14 14:03:44;;;;;;;10.15;5.13;;;;;;;;;;5018913;28;20488;-52
2024/01/14 14:06:10;;;;;;;10.57;5.30;;;;;;;;;;5016373;28;20442;-55
2024/01/14 14:08:36;;;;;;;12.00;5.70;;;;;;;;;;5018653;28;20437;-53
2024/01/14 14:11:02;;;;;;;11.23;5.35;;;;;;;;;;5018039;28;20030;-52
2024/01/14 14:13:28;;;;;;;10.02;5.13;;;;;;;;;;5016221;28;20330;-51
2024/01/14 14:15:54;;;;;;;11.15;6.05;;;;;;;;;;5012102;28;20435;-53
2024/01/14 14:18:20;;;;;;;10.63;5.28;;;;;;;;;;5012742;28;20361;-55
2024/01/14 14:20:46;;;;;;;12.00;5.55;;;;;;;;;;5022148;28;20448;-55